Portada
METAR-TAF:

METAR-TAF

Aeroports :

Boca Raton, Florida, Estats Units d'Amèrica

latitud: 26-22-43N, longitud: 080-06-28W, altitud: 4 m

Observació

L'informe es va fer fa 1 hora i 53 minuts, a les 14:53 UTC
Vent 5 kt del Sud-Est
Temperatura 33°C
Humitat 67%
Pressió 1020 hPa
Visibilitat: 16.1 km
Núvols disperses a una alçada de 2000 ft

METAR: KBCT 201453Z 13005KT 10SM SCT020 33/26 A3013

Hora: 12:46 (16:46 UTC)


TAF: manca

Observacions i pronòstics meteorològics de més de 4000 aeroports (METAR i TAF).

Les estacions disponibles són els punts grocs i vermells al mapa.

Posi el ratolí al punt desitjat per veure el nom de l'estació.

Feu clic per veure les observacions i els pronòstics meteorològics.

Per canviar el mapa: feu clic els botons verds amb una creu de color negre per apropar; al botó verd amb un guió per allunyar la imatge; o en les fletxes verdes per a mapes adjacents.


METAR-TAF: